KVYS/VYS METAR and TAF weather

Enter ICAO airport designator
Station Type Date Time Source
KVYS METAR 2022/08/16 17:55 UTC NOAA

KVYS 161755Z AUTO 06006KT 10SM SCT037 26/18 A3010 RMK AO2 T02610179


Station Type Date Time Source
KVYS Decoded METAR 2022/08/16 17:55 UTC NOAA

Peru, Illinois Valley Regional-Walter A Duncan Field Airport, IL, United States (KVYS) 41-21-07N 089-09-11W
Aug 16, 2022 - 01:55 PM EDT / 2022.08.16 1755 UTC
Wind: from the ENE (060 degrees) at 7 MPH (6 KT):0
Visibility: 10 mile(s):0
Sky conditions: partly cloudy
Temperature: 79.0 F (26.1 C)
Dew Point: 64.2 F (17.9 C)
Relative Humidity: 60%
Pressure (altimeter): 30.1 in. Hg (1019 hPa)
ob: KVYS 161755Z AUTO 06006KT 10SM SCT037 26/18 A3010 RMK AO2 T02610179
cycle: 18

Station Type Date Time Source
KVYS TAF UTC NOAA

Error!

Example: see airport list